Time;durP1;ratioP1;P1;durP2;ratioP2;P2;SDS_P1;SDS_P2;PMS_P1;PMS_P2;Temp;Humidity;BMP_temperature;BMP_pressure;BME280_temperature;BME280_humidity;BME280_pressure;Samples;Min_cycle;Max_cycle;Signal;HPM_P1;HPM_P2
2020/12/19 00:00:17;;;;;;;2.70;1.80;;;21.30;43.40;;;;;;1462003;95;21403;-36
2020/12/19 00:02:45;;;;;;;2.52;1.72;;;21.20;43.40;;;;;;1464730;95;21841;-35
2020/12/19 00:05:13;;;;;;;2.30;1.42;;;21.20;43.50;;;;;;1480557;94;21297;-37
2020/12/19 00:07:41;;;;;;;2.27;1.57;;;21.20;43.50;;;;;;1465123;95;21307;-38
2020/12/19 00:10:08;;;;;;;3.10;1.62;;;21.20;43.60;;;;;;1482085;95;21231;-37
2020/12/19 00:12:36;;;;;;;1.60;1.42;;;21.20;43.60;;;;;;1485076;94;21343;-37
2020/12/19 00:15:04;;;;;;;4.17;1.70;;;21.20;43.60;;;;;;1465736;95;21207;-39
2020/12/19 00:17:31;;;;;;;2.10;1.60;;;21.20;43.60;;;;;;1479458;94;21369;-35
2020/12/19 00:19:59;;;;;;;2.02;1.65;;;21.20;43.70;;;;;;1478131;95;21374;-37
2020/12/19 00:22:27;;;;;;;1.80;1.37;;;21.20;43.80;;;;;;1466144;95;21403;-37
2020/12/19 00:24:54;;;;;;;2.08;1.52;;;21.20;43.80;;;;;;1484391;95;21358;-38
2020/12/19 00:27:22;;;;;;;4.47;1.65;;;21.20;43.80;;;;;;1464508;95;21330;-38
2020/12/19 00:29:50;;;;;;;1.75;1.57;;;21.20;43.90;;;;;;1482773;95;21240;-37
2020/12/19 00:32:17;;;;;;;2.65;1.65;;;21.20;43.90;;;;;;1480559;95;22596;-36
2020/12/19 00:34:45;;;;;;;3.40;1.70;;;21.20;43.90;;;;;;1447816;95;21301;-38
2020/12/19 00:37:13;;;;;;;3.65;1.70;;;21.10;43.80;;;;;;1477232;95;21379;-38
2020/12/19 00:39:40;;;;;;;2.75;1.90;;;21.10;43.90;;;;;;1466262;95;21683;-38
2020/12/19 00:42:10;;;;;;;2.00;1.60;;;21.20;43.90;;;;;;1485335;94;21227;-37
2020/12/19 00:44:38;;;;;;;1.80;1.42;;;21.10;44.00;;;;;;1478587;95;21204;-38
2020/12/19 00:47:05;;;;;;;2.40;1.60;;;21.10;44.00;;;;;;1485418;95;21251;-37
2020/12/19 00:49:33;;;;;;;2.10;1.55;;;21.10;44.00;;;;;;1483300;95;21335;-42
2020/12/19 00:52:01;;;;;;;2.00;1.30;;;21.10;44.10;;;;;;1483630;95;21409;-36
2020/12/19 00:54:29;;;;;;;2.55;1.57;;;21.10;44.10;;;;;;1466046;95;22354;-36
2020/12/19 00:56:56;;;;;;;1.35;1.25;;;21.10;44.10;;;;;;1482443;94;21251;-37
2020/12/19 00:59:24;;;;;;;1.45;1.35;;;21.10;44.20;;;;;;1464355;95;21806;-37
2020/12/19 01:01:51;;;;;;;1.55;1.45;;;21.10;44.20;;;;;;1469950;95;21215;-37
2020/12/19 01:04:23;;;;;;;1.60;1.40;;;21.10;44.20;;;;;;1482135;95;21308;-37
2020/12/19 01:06:48;;;;;;;1.70;1.40;;;21.10;44.20;;;;;;1465639;95;21211;-37
2020/12/19 01:09:16;;;;;;;1.95;1.40;;;21.10;44.10;;;;;;1485665;94;21310;-37
2020/12/19 01:11:44;;;;;;;1.47;1.32;;;21.10;44.20;;;;;;1485312;95;21231;-35
2020/12/19 01:14:12;;;;;;;2.75;1.40;;;21.10;44.20;;;;;;1468079;95;21185;-35
2020/12/19 01:16:39;;;;;;;1.57;1.42;;;21.10;44.20;;;;;;1482751;95;21621;-39
2020/12/19 01:19:07;;;;;;;2.83;1.47;;;21.10;44.30;;;;;;1482080;94;21299;-38
2020/12/19 01:21:35;;;;;;;1.60;1.40;;;21.10;44.30;;;;;;1466262;95;21314;-34
2020/12/19 01:24:03;;;;;;;1.87;1.37;;;21.10;44.20;;;;;;1484497;94;21191;-37
2020/12/19 01:26:30;;;;;;;2.80;1.67;;;21.10;44.30;;;;;;1461212;96;21293;-35
2020/12/19 01:28:58;;;;;;;1.22;1.10;;;21.00;44.30;;;;;;1480167;95;21904;-37
2020/12/19 01:31:25;;;;;;;1.45;1.35;;;21.00;44.40;;;;;;1481887;95;21199;-35
2020/12/19 01:33:53;;;;;;;1.77;1.47;;;21.00;44.40;;;;;;1463110;95;21263;-41
2020/12/19 01:36:24;;;;;;;2.55;1.52;;;21.00;44.30;;;;;;1484859;95;21233;-37
2020/12/19 01:38:52;;;;;;;1.65;1.30;;;21.00;44.40;;;;;;1466725;95;21289;-38
2020/12/19 01:41:22;;;;;;;1.80;1.45;;;21.00;44.40;;;;;;1463961;95;21226;-38
2020/12/19 01:43:52;;;;;;;1.32;1.17;;;21.00;44.40;;;;;;1482141;93;21755;-37
2020/12/19 01:46:57;;;;;;;1.75;1.32;;;21.00;44.40;;;;;;1451219;95;21254;-36
2020/12/19 01:49:27;;;;;;;2.30;1.80;;;21.00;44.50;;;;;;1482073;93;67453;-39
2020/12/19 01:51:58;;;;;;;1.50;1.32;;;21.00;44.50;;;;;;1472131;95;21438;-40
2020/12/19 01:54:27;;;;;;;1.40;1.30;;;21.00;44.50;;;;;;1466541;95;21302;-37
2020/12/19 01:56:56;;;;;;;1.37;1.22;;;21.00;44.50;;;;;;1486400;94;21231;-36
2020/12/19 01:59:25;;;;;;;1.65;1.50;;;21.00;44.50;;;;;;1444776;94;21207;-38
2020/12/19 02:01:55;;;;;;;1.70;1.40;;;21.00;44.50;;;;;;1483878;95;21227;-37
2020/12/19 02:04:24;;;;;;;1.37;1.27;;;21.00;44.60;;;;;;1482472;95;21710;-38
2020/12/19 02:06:54;;;;;;;1.82;1.35;;;21.00;44.60;;;;;;1448881;95;21285;-39
2020/12/19 02:09:27;;;;;;;1.57;1.47;;;21.00;44.60;;;;;;1481887;95;21227;-37
2020/12/19 02:11:55;;;;;;;1.57;1.30;;;21.00;44.60;;;;;;1464178;95;21263;-39
2020/12/19 02:14:23;;;;;;;2.50;1.55;;;21.00;44.60;;;;;;1471037;95;21339;-40
2020/12/19 02:17:02;;;;;;;1.50;1.40;;;21.00;44.60;;;;;;1483828;94;21310;-38
2020/12/19 02:19:31;;;;;;;1.62;1.27;;;21.00;44.60;;;;;;1464617;95;21711;-38
2020/12/19 02:21:59;;;;;;;1.62;1.32;;;21.00;44.60;;;;;;1482139;95;21251;-38
2020/12/19 02:24:27;;;;;;;1.00;1.00;;;21.00;44.60;;;;;;1487449;95;21204;-38
2020/12/19 02:26:56;;;;;;;1.40;1.30;;;21.00;44.70;;;;;;1451600;95;21211;-34
2020/12/19 02:29:26;;;;;;;1.75;1.20;;;21.00;44.70;;;;;;1479875;94;21307;-37
2020/12/19 02:31:55;;;;;;;1.67;1.32;;;21.00;44.70;;;;;;1473166;95;21309;-38
2020/12/19 02:34:24;;;;;;;1.57;1.40;;;21.00;44.70;;;;;;1477636;94;21301;-36
2020/12/19 02:36:52;;;;;;;2.08;1.40;;;21.00;44.70;;;;;;1477745;94;21224;-36
2020/12/19 02:39:20;;;;;;;1.45;1.30;;;21.00;44.70;;;;;;1447737;94;21283;-37
2020/12/19 02:41:48;;;;;;;1.55;1.30;;;21.00;44.80;;;;;;1478150;94;21557;-38
2020/12/19 02:44:18;;;;;;;1.35;1.25;;;20.90;44.80;;;;;;1486576;95;21705;-36
2020/12/19 02:46:47;;;;;;;2.77;1.60;;;21.00;44.80;;;;;;1484059;94;21196;-39
2020/12/19 02:49:15;;;;;;;1.87;1.32;;;21.00;44.90;;;;;;1481106;95;21216;-34
2020/12/19 02:51:43;;;;;;;1.10;1.00;;;21.00;44.80;;;;;;1462964;94;21176;-38
2020/12/19 02:54:10;;;;;;;1.65;1.20;;;21.00;45.50;;;;;;1482667;93;21722;-37
2020/12/19 02:56:38;;;;;;;2.27;1.42;;;21.00;44.80;;;;;;1486828;94;21215;-35
2020/12/19 02:59:06;;;;;;;1.42;1.32;;;21.00;44.80;;;;;;1439111;95;21683;-36
2020/12/19 03:01:33;;;;;;;1.20;1.10;;;21.10;44.80;;;;;;1480877;94;21243;-36
2020/12/19 03:04:01;;;;;;;1.40;1.12;;;21.10;44.80;;;;;;1482200;95;21227;-38
2020/12/19 03:06:29;;;;;;;1.85;1.50;;;21.10;44.80;;;;;;1465760;95;21207;-37
2020/12/19 03:09:01;;;;;;;2.42;1.30;;;21.10;44.80;;;;;;1482100;95;21275;-39
2020/12/19 03:11:26;;;;;;;1.20;1.10;;;21.10;44.80;;;;;;1481232;95;21678;-39
2020/12/19 03:13:54;;;;;;;2.02;1.20;;;21.10;44.70;;;;;;1467002;95;21207;-40
2020/12/19 03:16:21;;;;;;;1.25;1.02;;;21.20;44.70;;;;;;1480846;95;21703;-37
2020/12/19 03:18:49;;;;;;;1.52;1.40;;;21.20;44.70;;;;;;1466754;95;21212;-41
2020/12/19 03:21:17;;;;;;;1.67;1.40;;;21.20;44.70;;;;;;1480426;95;21299;-38
2020/12/19 03:23:44;;;;;;;1.77;1.47;;;21.20;44.60;;;;;;1482355;95;21506;-36
2020/12/19 03:26:12;;;;;;;2.12;1.00;;;21.20;44.70;;;;;;1468052;95;21457;-37
2020/12/19 03:28:40;;;;;;;2.25;1.50;;;21.20;44.60;;;;;;1492605;94;21223;-37
2020/12/19 03:31:07;;;;;;;1.50;1.40;;;21.20;44.60;;;;;;1477680;95;21215;-38
2020/12/19 03:33:35;;;;;;;3.05;1.52;;;21.20;44.60;;;;;;1489400;94;22300;-38
2020/12/19 03:36:03;;;;;;;1.70;1.30;;;21.30;44.70;;;;;;1485483;93;21683;-37
2020/12/19 03:38:31;;;;;;;1.32;1.20;;;21.20;44.70;;;;;;1471496;94;22619;-37
2020/12/19 03:40:59;;;;;;;4.10;1.12;;;21.20;44.60;;;;;;1485319;94;21190;-39
2020/12/19 03:43:26;;;;;;;1.27;1.12;;;21.30;44.70;;;;;;1492921;94;21321;-40
2020/12/19 03:45:54;;;;;;;1.45;1.20;;;21.30;44.70;;;;;;1463925;94;21242;-36
2020/12/19 03:48:22;;;;;;;1.27;1.17;;;21.30;44.70;;;;;;1500703;93;21433;-38
2020/12/19 03:50:50;;;;;;;1.45;1.30;;;21.30;44.70;;;;;;1473995;94;21207;-36
2020/12/19 03:53:18;;;;;;;1.72;1.35;;;21.30;44.70;;;;;;1467024;95;21422;-36
2020/12/19 03:55:45;;;;;;;1.50;1.40;;;21.30;44.60;;;;;;1486855;93;21556;-40
2020/12/19 03:58:13;;;;;;;1.62;1.35;;;21.30;44.70;;;;;;1454619;95;21688;-36
2020/12/19 04:00:41;;;;;;;1.40;1.12;;;21.30;44.70;;;;;;1486335;95;21171;-34
2020/12/19 04:03:08;;;;;;;1.85;1.55;;;21.40;44.70;;;;;;1488150;94;21842;-37
2020/12/19 04:05:36;;;;;;;1.25;1.10;;;21.30;44.70;;;;;;1471697;94;21326;-35
2020/12/19 04:08:04;;;;;;;1.10;1.00;;;21.40;44.70;;;;;;1483836;94;21313;-39
2020/12/19 04:10:32;;;;;;;2.45;1.30;;;21.30;44.60;;;;;;1493018;94;21192;-38
2020/12/19 04:13:00;;;;;;;2.05;1.22;;;21.30;44.60;;;;;;1491862;94;21720;-38
2020/12/19 04:15:27;;;;;;;1.67;1.10;;;21.30;44.60;;;;;;1496063;94;21234;-39
2020/12/19 04:17:55;;;;;;;1.20;0.95;;;21.30;44.60;;;;;;1478940;94;21670;-35
2020/12/19 04:20:23;;;;;;;1.10;1.00;;;21.30;44.60;;;;;;1471111;94;21205;-36
2020/12/19 04:22:50;;;;;;;1.67;1.30;;;21.30;44.70;;;;;;1489880;94;21318;-41
2020/12/19 04:25:18;;;;;;;1.77;1.20;;;21.40;44.70;;;;;;1474871;94;21779;-37
2020/12/19 04:27:46;;;;;;;1.05;1.00;;;21.40;44.70;;;;;;1500088;93;21304;-37
2020/12/19 04:30:14;;;;;;;1.10;1.00;;;21.40;44.70;;;;;;1481317;94;21188;-37
2020/12/19 04:32:42;;;;;;;1.67;1.30;;;21.40;44.70;;;;;;1482067;94;21375;-37
2020/12/19 04:35:09;;;;;;;1.12;1.02;;;21.40;44.70;;;;;;1500551;94;21191;-38
2020/12/19 04:37:37;;;;;;;1.40;1.15;;;21.40;44.70;;;;;;1477160;94;21880;-37
2020/12/19 04:40:05;;;;;;;1.15;1.05;;;21.40;44.70;;;;;;1499443;94;21253;-37
2020/12/19 04:42:35;;;;;;;1.85;1.10;;;21.40;44.70;;;;;;1503431;93;21263;-38
2020/12/19 04:45:05;;;;;;;1.30;1.20;;;21.40;44.80;;;;;;1502486;94;21657;-39
2020/12/19 04:47:33;;;;;;;0.98;0.90;;;21.40;44.70;;;;;;1496105;92;21376;-38
2020/12/19 04:50:01;;;;;;;1.40;1.02;;;21.40;44.70;;;;;;1481808;94;21733;-39
2020/12/19 04:52:29;;;;;;;1.98;1.45;;;21.40;44.80;;;;;;1500886;94;21740;-37
2020/12/19 04:54:57;;;;;;;1.25;1.00;;;21.40;44.70;;;;;;1504325;93;21170;-38
2020/12/19 04:57:25;;;;;;;1.35;1.25;;;21.40;44.70;;;;;;1495498;93;21827;-37
2020/12/19 04:59:53;;;;;;;1.30;1.20;;;21.40;44.70;;;;;;1497787;94;21251;-38
2020/12/19 05:02:20;;;;;;;1.30;1.20;;;21.40;44.70;;;;;;1500585;94;21243;-32
2020/12/19 05:04:49;;;;;;;1.62;1.45;;;21.40;45.30;;;;;;1485243;95;21251;-36
2020/12/19 05:07:17;;;;;;;1.35;1.25;;;21.40;44.70;;;;;;1494238;94;21244;-38
2020/12/19 05:09:45;;;;;;;1.40;1.30;;;21.40;44.80;;;;;;1490872;94;21180;-38
2020/12/19 05:12:14;;;;;;;1.20;1.10;;;21.40;44.80;;;;;;1482365;94;21230;-38
2020/12/19 05:14:42;;;;;;;1.30;1.20;;;21.40;44.80;;;;;;1496941;93;21298;-35
2020/12/19 05:17:09;;;;;;;3.05;1.00;;;21.40;44.80;;;;;;1479114;94;22173;-38
2020/12/19 05:19:37;;;;;;;1.50;1.20;;;21.40;44.80;;;;;;1494336;94;21218;-37
2020/12/19 05:22:05;;;;;;;1.72;1.20;;;21.40;44.70;;;;;;1498244;94;21294;-38
2020/12/19 05:24:37;;;;;;;1.32;1.22;;;21.40;44.80;;;;;;1481620;95;21775;-37
2020/12/19 05:27:06;;;;;;;1.15;1.05;;;21.40;44.80;;;;;;1498102;94;21303;-38
2020/12/19 05:29:34;;;;;;;1.52;1.27;;;21.40;44.80;;;;;;1479771;95;21823;-38
2020/12/19 05:32:01;;;;;;;1.35;1.12;;;21.40;44.80;;;;;;1482625;94;21720;-39
2020/12/19 05:34:29;;;;;;;1.45;1.35;;;21.40;44.80;;;;;;1497114;93;21234;-37
2020/12/19 05:36:58;;;;;;;1.20;1.10;;;21.40;44.80;;;;;;1482431;94;21281;-37
2020/12/19 05:39:25;;;;;;;1.20;1.10;;;21.40;44.80;;;;;;1491323;94;21230;-38
2020/12/19 05:41:55;;;;;;;1.32;1.10;;;21.40;44.80;;;;;;1495176;93;21243;-37
2020/12/19 05:44:23;;;;;;;1.05;0.98;;;21.40;44.80;;;;;;1481140;94;21318;-37
2020/12/19 05:46:51;;;;;;;1.50;1.20;;;21.40;44.80;;;;;;1495048;93;21203;-39
2020/12/19 05:49:21;;;;;;;1.62;1.07;;;21.40;44.80;;;;;;1482744;93;21222;-32
2020/12/19 05:51:50;;;;;;;1.42;1.00;;;21.40;44.80;;;;;;1483384;94;21253;-37
2020/12/19 05:54:20;;;;;;;2.95;1.55;;;21.40;44.80;;;;;;1507000;93;21226;-37
2020/12/19 05:56:48;;;;;;;1.98;1.40;;;21.40;44.80;;;;;;1493897;93;21692;-36
2020/12/19 05:59:18;;;;;;;1.45;1.20;;;21.40;44.80;;;;;;1494551;93;21260;-37
2020/12/19 06:01:47;;;;;;;1.10;1.05;;;21.40;44.80;;;;;;1495954;93;21267;-36
2020/12/19 06:04:16;;;;;;;1.20;1.10;;;21.40;44.80;;;;;;1495438;93;21335;-41
2020/12/19 06:06:46;;;;;;;1.32;1.22;;;21.40;44.80;;;;;;1495099;94;21254;-40
2020/12/19 06:09:14;;;;;;;1.20;1.10;;;21.40;44.80;;;;;;1500902;94;21232;-36
2020/12/19 06:11:45;;;;;;;1.95;1.25;;;21.40;44.80;;;;;;1483944;95;21278;-36
2020/12/19 06:14:16;;;;;;;1.30;1.20;;;21.40;44.80;;;;;;1494094;93;21691;-38
2020/12/19 06:16:47;;;;;;;2.25;1.12;;;21.40;44.80;;;;;;1487000;94;21257;-38
2020/12/19 06:19:17;;;;;;;1.12;1.02;;;21.40;44.80;;;;;;1504274;94;21559;-38
2020/12/19 06:21:51;;;;;;;0.90;0.90;;;21.40;44.80;;;;;;1496690;93;21245;-37
2020/12/19 06:24:44;;;;;;;1.47;1.25;;;21.40;44.80;;;;;;1496169;93;21240;-38
2020/12/19 06:27:26;;;;;;;1.35;1.20;;;21.40;44.80;;;;;;1501782;91;68357;-41
2020/12/19 06:29:54;;;;;;;1.30;1.20;;;21.40;44.90;;;;;;1476736;94;21230;-37
2020/12/19 06:32:28;;;;;;;1.27;1.17;;;21.40;44.90;;;;;;1501503;94;22083;-40
2020/12/19 06:35:10;;;;;;;1.60;1.37;;;21.40;44.80;;;;;;1481401;94;21139;-37
2020/12/19 06:37:40;;;;;;;1.82;1.20;;;21.40;44.80;;;;;;1475737;95;67351;-37
2020/12/19 06:40:19;;;;;;;1.05;0.95;;;21.40;44.90;;;;;;1463988;95;21192;-37
2020/12/19 06:42:49;;;;;;;1.12;1.02;;;21.40;44.80;;;;;;1480514;95;21252;-36
2020/12/19 06:45:22;;;;;;;1.40;1.30;;;21.40;44.80;;;;;;1479382;94;21204;-38
2020/12/19 06:47:50;;;;;;;1.20;1.10;;;21.40;44.90;;;;;;1447622;96;21172;-39
2020/12/19 06:50:19;;;;;;;1.42;1.17;;;21.40;44.90;;;;;;1470005;94;21522;-36
2020/12/19 06:52:58;;;;;;;1.20;1.10;;;21.40;44.90;;;;;;1484177;94;21247;-38
2020/12/19 06:55:28;;;;;;;1.02;1.00;;;21.40;44.90;;;;;;1464014;95;21268;-39
2020/12/19 06:57:58;;;;;;;1.17;1.07;;;21.40;44.90;;;;;;1485819;94;21868;-37
2020/12/19 07:00:32;;;;;;;1.40;1.30;;;21.40;44.90;;;;;;1448942;96;21371;-37
2020/12/19 07:03:03;;;;;;;1.30;1.20;;;21.40;44.80;;;;;;1465125;95;21286;-36
2020/12/19 07:05:32;;;;;;;1.57;1.25;;;21.40;44.90;;;;;;1474877;94;21596;-35
2020/12/19 07:08:19;;;;;;;1.30;1.20;;;21.40;44.90;;;;;;1472808;95;21223;-39
2020/12/19 07:10:47;;;;;;;1.90;1.15;;;21.40;44.80;;;;;;1485880;93;68005;-38
2020/12/19 07:13:16;;;;;;;1.37;1.22;;;21.40;44.80;;;;;;1491739;94;22477;-39
2020/12/19 07:15:46;;;;;;;1.30;1.20;;;21.40;44.90;;;;;;1483870;93;21246;-34
2020/12/19 07:18:33;;;;;;;1.05;1.05;;;21.40;44.90;;;;;;1493990;93;21236;-36
2020/12/19 07:21:03;;;;;;;1.30;1.20;;;21.40;44.90;;;;;;1480599;93;67717;-36
2020/12/19 07:23:32;;;;;;;1.30;1.20;;;21.40;44.90;;;;;;1501405;93;21234;-34
2020/12/19 07:26:00;;;;;;;1.30;1.20;;;21.40;44.90;;;;;;1510891;92;21218;-38
2020/12/19 07:28:29;;;;;;;1.30;1.20;;;21.40;44.90;;;;;;1495685;94;21287;-39
2020/12/19 07:30:57;;;;;;;1.27;1.05;;;21.40;44.90;;;;;;1500640;93;21266;-37
2020/12/19 07:33:24;;;;;;;1.10;1.00;;;21.40;44.90;;;;;;1465169;95;21187;-38
2020/12/19 07:35:52;;;;;;;1.17;1.00;;;21.40;44.90;;;;;;1498889;93;21246;-40
2020/12/19 07:38:22;;;;;;;2.02;1.07;;;21.40;44.90;;;;;;1497085;93;21312;-37
2020/12/19 07:40:57;;;;;;;1.40;1.30;;;21.40;44.90;;;;;;1463936;94;21634;-37
2020/12/19 07:43:25;;;;;;;1.50;1.30;;;21.40;44.90;;;;;;1498510;93;21750;-39
2020/12/19 07:45:59;;;;;;;1.32;1.22;;;21.40;44.90;;;;;;1484169;94;22382;-35
2020/12/19 07:48:26;;;;;;;1.27;1.17;;;21.40;44.90;;;;;;1485605;93;21684;-38
2020/12/19 07:50:54;;;;;;;1.92;1.35;;;21.40;44.90;;;;;;1500713;92;21227;-38
2020/12/19 07:53:21;;;;;;;1.20;1.10;;;21.40;45.00;;;;;;1484405;94;21909;-39
2020/12/19 07:55:51;;;;;;;1.50;1.20;;;21.40;45.00;;;;;;1505002;92;21235;-35
2020/12/19 07:58:20;;;;;;;1.37;1.20;;;21.40;45.00;;;;;;1496672;93;21376;-39
2020/12/19 08:00:48;;;;;;;1.37;1.27;;;21.40;45.00;;;;;;1508019;92;21313;-36
2020/12/19 08:03:16;;;;;;;2.05;1.32;;;21.40;45.00;;;;;;1502474;93;21219;-39
2020/12/19 08:05:43;;;;;;;1.42;1.02;;;21.40;45.10;;;;;;1520044;92;21838;-42
2020/12/19 08:08:12;;;;;;;1.50;1.40;;;21.40;45.00;;;;;;1504506;93;21356;-37
2020/12/19 08:10:40;;;;;;;1.30;1.12;;;21.40;45.00;;;;;;1504293;93;21583;-37
2020/12/19 08:13:11;;;;;;;2.00;1.10;;;21.40;45.00;;;;;;1517853;92;21227;-37
2020/12/19 08:15:39;;;;;;;1.17;1.05;;;21.40;45.00;;;;;;1504807;92;21218;-36
2020/12/19 08:18:13;;;;;;;1.72;1.57;;;21.40;45.00;;;;;;1500544;93;22099;-37
2020/12/19 08:20:41;;;;;;;1.85;1.25;;;21.40;45.00;;;;;;1500754;93;21196;-36
2020/12/19 08:23:09;;;;;;;1.67;1.10;;;21.40;45.40;;;;;;1500826;93;21262;-38
2020/12/19 08:25:38;;;;;;;1.40;1.22;;;21.40;45.00;;;;;;1517251;91;21167;-37
2020/12/19 08:28:06;;;;;;;1.62;1.25;;;21.40;45.00;;;;;;1481714;94;21678;-38
2020/12/19 08:30:34;;;;;;;1.98;1.40;;;21.40;45.00;;;;;;1501332;94;21228;-38
2020/12/19 08:33:05;;;;;;;1.40;1.22;;;21.40;45.00;;;;;;1503408;92;21735;-38
2020/12/19 08:35:41;;;;;;;1.72;1.32;;;21.40;45.00;;;;;;1501503;93;21203;-38
2020/12/19 08:38:11;;;;;;;;;;;21.40;45.00;;;;;;1504766;93;21227;-37
2020/12/19 08:40:47;;;;;;;1.45;1.25;;;21.40;45.00;;;;;;1497731;93;20321;-36
2020/12/19 08:43:17;;;;;;;1.30;1.20;;;21.40;45.00;;;;;;1501089;93;21199;-39
2020/12/19 08:45:51;;;;;;;1.30;1.20;;;21.40;45.00;;;;;;1500526;93;21179;-38
2020/12/19 08:48:21;;;;;;;1.87;1.07;;;21.40;45.00;;;;;;1483589;94;21285;-39
2020/12/19 08:50:51;;;;;;;2.17;1.50;;;21.40;45.10;;;;;;1495376;93;21210;-38
2020/12/19 08:53:21;;;;;;;1.47;1.37;;;21.40;45.00;;;;;;1502252;93;21540;-41
2020/12/19 08:55:50;;;;;;;1.37;1.27;;;21.40;45.00;;;;;;1495756;93;21819;-39
2020/12/19 08:58:23;;;;;;;1.35;1.25;;;21.40;45.00;;;;;;1494897;94;21224;-38
2020/12/19 09:00:52;;;;;;;1.95;1.50;;;21.40;45.00;;;;;;1515437;91;21720;-36
2020/12/19 09:03:32;;;;;;;1.75;1.20;;;21.40;45.00;;;;;;1494213;93;21240;-38
2020/12/19 09:06:07;;;;;;;1.40;1.30;;;21.40;45.10;;;;;;1497463;93;21214;-36
2020/12/19 09:08:40;;;;;;;1.77;1.35;;;21.40;45.00;;;;;;1501120;93;21207;-36
2020/12/19 09:11:10;;;;;;;1.30;1.20;;;21.40;45.00;;;;;;1513173;93;21209;-39
2020/12/19 09:13:38;;;;;;;2.15;1.37;;;21.40;45.00;;;;;;1483026;94;21229;-37
2020/12/19 09:16:10;;;;;;;1.62;1.52;;;21.40;45.00;;;;;;1487157;93;21218;-35
2020/12/19 09:18:39;;;;;;;1.65;1.27;;;21.40;45.10;;;;;;1498839;94;21256;-37
2020/12/19 09:21:08;;;;;;;1.37;1.27;;;21.40;45.00;;;;;;1469680;93;22706;-35
2020/12/19 09:23:37;;;;;;;1.30;1.20;;;21.40;45.10;;;;;;1500682;92;21211;-35
2020/12/19 09:26:07;;;;;;;1.62;1.47;;;21.40;45.10;;;;;;1502002;94;21760;-37
2020/12/19 09:28:34;;;;;;;3.77;1.37;;;21.40;45.10;;;;;;1506773;93;21231;-36
2020/12/19 09:31:02;;;;;;;1.60;1.37;;;21.40;45.10;;;;;;1495185;93;21309;-37
2020/12/19 09:33:30;;;;;;;1.30;1.20;;;21.40;45.10;;;;;;1497266;93;21223;-34
2020/12/19 09:35:58;;;;;;;2.05;1.45;;;21.40;45.10;;;;;;1483081;94;22308;-35
2020/12/19 09:38:25;;;;;;;1.80;1.20;;;21.40;45.10;;;;;;1498272;93;22888;-35
2020/12/19 09:40:53;;;;;;;1.72;1.50;;;21.40;45.10;;;;;;1498881;93;21297;-38
2020/12/19 09:43:20;;;;;;;1.55;1.40;;;21.40;45.10;;;;;;1497125;93;21210;-37
2020/12/19 09:45:48;;;;;;;1.55;1.45;;;21.40;45.10;;;;;;1500130;93;21179;-35
2020/12/19 09:48:16;;;;;;;1.40;1.25;;;21.40;45.10;;;;;;1468612;94;21310;-35
2020/12/19 09:50:43;;;;;;;1.95;1.30;;;21.40;45.10;;;;;;1499877;93;21433;-38
2020/12/19 09:53:11;;;;;;;1.47;1.37;;;21.50;45.20;;;;;;1518313;92;21169;-37
2020/12/19 09:55:39;;;;;;;1.87;1.37;;;21.50;45.20;;;;;;1484218;94;21747;-36
2020/12/19 09:58:07;;;;;;;1.50;1.40;;;21.50;45.20;;;;;;1498053;93;21266;-38
2020/12/19 10:00:34;;;;;;;1.62;1.52;;;21.40;45.10;;;;;;1501978;93;21718;-37
2020/12/19 10:03:02;;;;;;;1.60;1.42;;;21.50;45.20;;;;;;1498704;93;21217;-38
2020/12/19 10:05:31;;;;;;;1.98;1.40;;;21.40;45.10;;;;;;1499812;93;21379;-37
2020/12/19 10:07:59;;;;;;;1.47;1.27;;;21.50;45.20;;;;;;1469268;94;21251;-37
2020/12/19 10:10:26;;;;;;;1.42;1.32;;;21.50;45.20;;;;;;1495770;93;21280;-39
2020/12/19 10:12:54;;;;;;;1.47;1.37;;;21.40;45.60;;;;;;1523389;92;21206;-40
2020/12/19 10:15:21;;;;;;;1.65;1.35;;;21.40;45.10;;;;;;1482633;94;21199;-36
2020/12/19 10:17:49;;;;;;;1.50;1.35;;;21.40;45.20;;;;;;1498576;93;21569;-39
2020/12/19 10:20:17;;;;;;;1.77;1.45;;;21.40;45.10;;;;;;1518624;92;21730;-38
2020/12/19 10:22:46;;;;;;;1.67;1.20;;;21.50;45.20;;;;;;1501074;93;21225;-37
2020/12/19 10:25:14;;;;;;;1.37;1.27;;;21.50;45.20;;;;;;1504790;93;21223;-37
2020/12/19 10:27:42;;;;;;;1.82;1.55;;;21.50;45.20;;;;;;1484589;94;21210;-36
2020/12/19 10:30:10;;;;;;;1.30;1.20;;;21.50;45.20;;;;;;1504461;93;21742;-34
2020/12/19 10:32:37;;;;;;;1.50;1.40;;;21.50;45.20;;;;;;1518451;92;21206;-38
2020/12/19 10:35:06;;;;;;;1.57;1.45;;;21.50;45.20;;;;;;1483092;93;21195;-38
2020/12/19 10:37:35;;;;;;;1.30;1.20;;;21.50;45.20;;;;;;1502224;94;21766;-38
2020/12/19 10:40:04;;;;;;;2.05;1.50;;;21.50;45.20;;;;;;1500442;93;21922;-36
2020/12/19 10:42:32;;;;;;;1.55;1.30;;;21.50;45.20;;;;;;1503567;93;21318;-37
2020/12/19 10:45:00;;;;;;;2.15;1.80;;;21.60;45.20;;;;;;1526263;92;21292;-38
2020/12/19 10:47:28;;;;;;;1.60;1.47;;;21.50;45.20;;;;;;1494512;92;21131;-34
2020/12/19 10:49:55;;;;;;;1.22;1.20;;;21.50;45.20;;;;;;1500547;92;21214;-40
2020/12/19 10:52:24;;;;;;;1.60;1.50;;;21.50;45.20;;;;;;1478583;93;21647;-38
2020/12/19 10:54:51;;;;;;;1.40;1.27;;;21.50;45.20;;;;;;1475051;94;21293;-35
2020/12/19 10:57:19;;;;;;;1.85;1.55;;;21.50;45.20;;;;;;1491672;94;21215;-36
2020/12/19 10:59:46;;;;;;;2.65;1.32;;;21.50;45.20;;;;;;1478833;94;21239;-35
2020/12/19 11:02:14;;;;;;;1.40;1.30;;;21.50;45.20;;;;;;1494307;94;21234;-35
2020/12/19 11:04:42;;;;;;;1.95;1.50;;;21.50;45.20;;;;;;1488943;94;21298;-36
2020/12/19 11:07:09;;;;;;;1.77;1.45;;;21.50;45.30;;;;;;1460599;94;21282;-39
2020/12/19 11:09:37;;;;;;;1.50;1.30;;;21.50;45.30;;;;;;1493846;93;21472;-37
2020/12/19 11:12:05;;;;;;;1.80;1.60;;;21.60;45.30;;;;;;1513476;92;21418;-37
2020/12/19 11:14:33;;;;;;;1.77;1.67;;;21.50;45.70;;;;;;1494289;92;21837;-35
2020/12/19 11:17:00;;;;;;;5.33;1.50;;;21.60;46.20;;;;;;1491659;94;21325;-38
2020/12/19 11:19:28;;;;;;;2.20;1.85;;;21.60;46.70;;;;;;1490182;94;21262;-38
2020/12/19 11:21:56;;;;;;;1.87;1.77;;;21.60;47.20;;;;;;1488861;93;21223;-36
2020/12/19 11:24:24;;;;;;;2.65;2.10;;;21.60;47.30;;;;;;1491478;94;21290;-36
2020/12/19 11:26:51;;;;;;;4.00;2.05;;;21.60;47.40;;;;;;1491534;93;21951;-39
2020/12/19 11:29:19;;;;;;;4.08;2.27;;;21.70;47.40;;;;;;1492233;93;21239;-39
2020/12/19 11:31:48;;;;;;;3.02;2.10;;;21.70;47.50;;;;;;1510089;92;21222;-38
2020/12/19 11:34:16;;;;;;;2.62;1.82;;;21.70;47.60;;;;;;1493373;93;21248;-37
2020/12/19 11:36:44;;;;;;;3.22;2.30;;;21.70;47.50;;;;;;1493237;94;21267;-40
2020/12/19 11:39:12;;;;;;;2.27;2.08;;;21.70;47.60;;;;;;1508513;92;21561;-35
2020/12/19 11:41:40;;;;;;;3.00;2.50;;;21.70;47.70;;;;;;1494294;94;21797;-38
2020/12/19 11:44:11;;;;;;;3.67;2.52;;;21.70;47.60;;;;;;1492414;94;21290;-37
2020/12/19 11:46:39;;;;;;;3.22;2.47;;;21.70;47.60;;;;;;1459852;94;21231;-37
2020/12/19 11:49:07;;;;;;;7.17;3.05;;;21.70;47.50;;;;;;1491687;94;21199;-37
2020/12/19 11:51:35;;;;;;;7.95;3.10;;;21.70;47.80;;;;;;1488779;94;21761;-39
2020/12/19 11:54:04;;;;;;;8.15;3.52;;;21.70;48.70;;;;;;1478962;95;21201;-37
2020/12/19 11:56:33;;;;;;;10.08;3.33;;;21.80;49.90;;;;;;1492977;94;21117;-35
2020/12/19 11:59:01;;;;;;;13.32;3.87;;;21.80;50.60;;;;;;1493608;93;22454;-39
2020/12/19 12:01:29;;;;;;;7.45;4.05;;;21.80;50.80;;;;;;1494322;94;21220;-38
2020/12/19 12:03:58;;;;;;;7.87;3.67;;;21.80;50.60;;;;;;1500571;92;22004;-38
2020/12/19 12:06:35;;;;;;;7.22;3.50;;;21.80;50.60;;;;;;1466634;95;21230;-38
2020/12/19 12:09:05;;;;;;;6.33;3.22;;;21.80;50.40;;;;;;1498520;93;67149;-38
2020/12/19 12:11:36;;;;;;;5.95;4.15;;;21.80;50.30;;;;;;1470324;93;21202;-38
2020/12/19 12:14:04;;;;;;;6.65;3.62;;;21.80;50.20;;;;;;1495071;93;21206;-36
2020/12/19 12:16:31;;;;;;;6.97;3.15;;;21.80;50.00;;;;;;1500684;93;21795;-39
2020/12/19 12:18:59;;;;;;;7.37;3.47;;;21.90;50.00;;;;;;1485870;93;21530;-35
2020/12/19 12:21:34;;;;;;;8.90;3.42;;;21.80;49.90;;;;;;1499731;93;21214;-38
2020/12/19 12:24:03;;;;;;;5.87;3.10;;;21.80;49.70;;;;;;1483425;93;21313;-36
2020/12/19 12:26:31;;;;;;;4.92;3.20;;;21.80;49.60;;;;;;1498332;93;21226;-38
2020/12/19 12:29:04;;;;;;;6.42;3.10;;;21.80;49.50;;;;;;1501510;93;21231;-38
2020/12/19 12:31:31;;;;;;;10.43;3.22;;;21.80;49.30;;;;;;1495593;93;21190;-38
2020/12/19 12:33:59;;;;;;;4.92;3.08;;;21.80;49.20;;;;;;1499950;93;21203;-38
2020/12/19 12:36:29;;;;;;;4.85;3.00;;;21.90;49.10;;;;;;1501004;93;21206;-38
2020/12/19 12:38:57;;;;;;;4.00;2.70;;;21.90;49.00;;;;;;1471660;93;21722;-39
2020/12/19 12:41:25;;;;;;;7.58;3.60;;;21.90;48.80;;;;;;1502367;93;21226;-38
2020/12/19 12:43:53;;;;;;;10.68;3.15;;;21.90;48.70;;;;;;1483206;93;21245;-39
2020/12/19 12:46:21;;;;;;;4.87;2.90;;;21.90;48.50;;;;;;1499768;93;21202;-37
2020/12/19 12:48:49;;;;;;;5.92;2.83;;;21.90;48.40;;;;;;1502167;93;22119;-35
2020/12/19 12:51:17;;;;;;;6.05;3.15;;;21.90;48.20;;;;;;1465609;93;21681;-41
2020/12/19 12:53:46;;;;;;;4.85;2.90;;;21.90;48.10;;;;;;1499384;92;21300;-34
2020/12/19 12:56:15;;;;;;;6.15;3.12;;;21.90;48.00;;;;;;1500807;93;22010;-35